Terminal Aerodrome Forecast
Issued by NWS Shreveport, LA

Home | Current Version | Previous Version | Text Only | Print | Product List | Glossary On
Versions: 1 2 3 4 5 6 7 8 9 10 11 12 13 14 15
000
FTUS44 KSHV 282300
TAFGGG
TAF
KGGG 282320Z 2900/2924 VRB04KT P6SM VCTS BKN060CB
     FM290200 02003KT P6SM SCT250
     FM291200 05006KT P6SM SKC=

USA.gov is the U.S. government's official web portal to all federal, state and local government web resources and services.